createdAt,value
2023-05-03T00:01:08.827Z,3.90
2023-05-03T00:03:13.066Z,3.90
2023-05-03T00:05:15.645Z,3.90
2023-05-03T00:07:18.734Z,3.80
2023-05-03T00:09:21.227Z,3.80
2023-05-03T00:11:23.735Z,3.70
2023-05-03T00:13:26.239Z,3.80
2023-05-03T00:15:28.974Z,3.80
2023-05-03T00:17:31.564Z,3.80
2023-05-03T00:19:34.562Z,3.80
2023-05-03T00:21:37.044Z,3.70
2023-05-03T00:23:39.536Z,3.60
2023-05-03T00:25:42.042Z,3.60
2023-05-03T00:27:44.520Z,3.50
2023-05-03T00:29:47.024Z,3.30
2023-05-03T00:31:49.558Z,3.40
2023-05-03T00:33:52.149Z,3.40
2023-05-03T00:35:54.649Z,3.40
2023-05-03T00:37:57.855Z,3.30
2023-05-03T00:40:00.668Z,3.40
2023-05-03T00:42:03.998Z,3.40
2023-05-03T00:44:06.660Z,3.40
2023-05-03T00:46:16.546Z,3.40
2023-05-03T00:48:14.045Z,3.30
2023-05-03T00:50:16.737Z,3.30
2023-05-03T00:52:19.208Z,3.20
2023-05-03T00:54:21.821Z,3.20
2023-05-03T00:56:24.468Z,3.20
2023-05-03T00:58:26.922Z,3.20
2023-05-03T01:00:29.401Z,3.20
2023-05-03T01:02:32.196Z,3.10
2023-05-03T01:04:36.530Z,3.00
2023-05-03T01:06:41.284Z,3.00
2023-05-03T01:08:46.042Z,2.90
2023-05-03T01:10:51.315Z,2.90
2023-05-03T01:15:18.021Z,2.80
2023-05-03T01:17:22.353Z,2.80
2023-05-03T01:19:29.080Z,2.70
2023-05-03T01:21:33.470Z,2.60
2023-05-03T01:23:38.829Z,2.60
2023-05-03T01:25:41.730Z,2.60
2023-05-03T01:27:49.212Z,2.50
2023-05-03T01:29:52.304Z,2.50
2023-05-03T01:31:57.687Z,2.50
2023-05-03T01:34:04.632Z,2.50
2023-05-03T01:36:09.612Z,2.50
2023-05-03T01:38:13.449Z,2.50
2023-05-03T01:40:19.433Z,2.50
2023-05-03T01:42:22.673Z,2.50
2023-05-03T01:44:25.383Z,2.50
2023-05-03T01:46:28.086Z,2.60
2023-05-03T01:48:30.698Z,2.50
2023-05-03T01:50:33.281Z,2.60
2023-05-03T01:52:35.928Z,2.50
2023-05-03T01:54:38.567Z,2.50
2023-05-03T01:56:41.037Z,2.50
2023-05-03T01:58:43.687Z,2.50
2023-05-03T02:00:46.278Z,2.50
2023-05-03T02:02:49.024Z,2.40
2023-05-03T02:04:51.584Z,2.40
2023-05-03T02:06:54.881Z,2.30
2023-05-03T02:08:57.637Z,2.30
2023-05-03T02:11:00.445Z,2.30
2023-05-03T02:13:03.137Z,2.30
2023-05-03T02:15:06.990Z,2.30
2023-05-03T02:17:09.803Z,2.30
2023-05-03T02:19:13.486Z,2.30
2023-05-03T02:21:16.060Z,2.30
2023-05-03T02:23:18.668Z,2.10
2023-05-03T02:25:21.256Z,2.10
2023-05-03T02:27:23.901Z,2.10
2023-05-03T02:29:27.025Z,2.10
2023-05-03T02:31:29.657Z,2.20
2023-05-03T02:33:32.297Z,2.10
2023-05-03T02:35:35.330Z,2.10
2023-05-03T02:37:37.922Z,2.10
2023-05-03T02:39:42.262Z,2.10
2023-05-03T02:41:44.965Z,2.10
2023-05-03T02:43:48.251Z,2.10
2023-05-03T02:45:50.990Z,2.00
2023-05-03T02:47:53.735Z,2.00
2023-05-03T02:49:57.325Z,1.90
2023-05-03T02:52:00.118Z,1.90
2023-05-03T02:54:02.800Z,1.90
2023-05-03T02:56:05.926Z,1.90
2023-05-03T02:58:09.548Z,1.80
2023-05-03T03:00:14.620Z,1.80
2023-05-03T03:02:17.087Z,1.80
2023-05-03T03:04:19.684Z,1.80
2023-05-03T03:06:22.575Z,1.80
2023-05-03T03:08:25.198Z,1.60
2023-05-03T03:10:28.321Z,1.80
2023-05-03T03:12:31.015Z,1.80
2023-05-03T03:14:35.153Z,1.80
2023-05-03T03:16:37.867Z,1.80
2023-05-03T03:18:40.650Z,1.80
2023-05-03T03:20:43.666Z,1.80
2023-05-03T03:22:46.667Z,1.70
2023-05-03T03:24:49.471Z,1.70
2023-05-03T03:26:52.059Z,1.60
2023-05-03T03:28:54.741Z,1.70
2023-05-03T03:30:57.352Z,1.70
2023-05-03T03:33:00.071Z,1.80
2023-05-03T03:35:05.160Z,1.80
2023-05-03T03:37:08.649Z,1.80
2023-05-03T03:39:11.821Z,1.80
2023-05-03T03:41:15.386Z,1.90
2023-05-03T03:43:18.262Z,1.90
2023-05-03T03:45:21.432Z,1.80
2023-05-03T03:47:24.848Z,1.90
2023-05-03T03:49:27.896Z,1.80
2023-05-03T03:51:30.974Z,1.80
2023-05-03T03:53:33.761Z,1.80
2023-05-03T03:55:37.125Z,1.80
2023-05-03T03:57:39.680Z,1.80
2023-05-03T03:59:42.261Z,1.80
2023-05-03T04:01:45.587Z,1.70
2023-05-03T04:03:48.719Z,1.80
2023-05-03T04:05:51.692Z,1.80
2023-05-03T04:10:11.547Z,1.90
2023-05-03T04:12:15.295Z,1.80
2023-05-03T04:14:19.588Z,1.80
2023-05-03T04:16:22.458Z,1.70
2023-05-03T04:18:25.229Z,1.60
2023-05-03T04:20:28.799Z,1.60
2023-05-03T04:22:32.085Z,1.60
2023-05-03T04:24:35.170Z,1.60
2023-05-03T04:26:37.738Z,1.50
2023-05-03T04:28:42.446Z,1.50
2023-05-03T04:30:46.885Z,1.50
2023-05-03T04:32:52.564Z,1.50
2023-05-03T04:34:55.228Z,1.60
2023-05-03T04:37:00.025Z,1.70
2023-05-03T04:39:02.906Z,1.70
2023-05-03T04:41:06.121Z,1.80
2023-05-03T04:43:08.792Z,1.80
2023-05-03T04:45:14.015Z,1.80
2023-05-03T04:47:17.679Z,1.70
2023-05-03T04:49:20.752Z,1.80
2023-05-03T04:51:23.481Z,1.80
2023-05-03T04:53:27.171Z,1.90
2023-05-03T04:55:31.572Z,1.90
2023-05-03T04:57:34.516Z,2.00
2023-05-03T04:59:37.425Z,2.10
2023-05-03T05:01:40.057Z,2.20
2023-05-03T05:03:43.242Z,2.30
2023-05-03T05:05:47.857Z,2.40
2023-05-03T05:07:51.198Z,2.50
2023-05-03T05:09:53.965Z,2.60
2023-05-03T05:11:57.466Z,2.60
2023-05-03T05:14:01.888Z,2.70
2023-05-03T05:16:05.495Z,2.70
2023-05-03T05:18:08.771Z,2.70
2023-05-03T05:20:12.775Z,2.70
2023-05-03T05:22:17.170Z,2.70
2023-05-03T05:24:21.628Z,2.80
2023-05-03T05:26:25.584Z,2.80
2023-05-03T05:28:28.474Z,2.90
2023-05-03T05:30:31.483Z,3.00
2023-05-03T05:32:34.858Z,3.20
2023-05-03T05:34:44.941Z,3.20
2023-05-03T05:36:42.440Z,3.30
2023-05-03T05:38:45.184Z,3.30
2023-05-03T05:40:47.783Z,3.30
2023-05-03T05:42:50.577Z,3.30
2023-05-03T05:44:53.697Z,3.30
2023-05-03T05:46:56.877Z,3.40
2023-05-03T05:49:00.312Z,3.40
2023-05-03T05:51:03.775Z,3.40
2023-05-03T05:55:23.045Z,3.50
2023-05-03T05:57:26.004Z,3.50
2023-05-03T05:59:30.825Z,3.70
2023-05-03T06:01:33.912Z,3.70
2023-05-03T06:03:36.979Z,4.00
2023-05-03T06:05:41.458Z,4.20
2023-05-03T06:07:45.373Z,4.30
2023-05-03T06:09:48.284Z,4.50
2023-05-03T06:11:50.856Z,4.70
2023-05-03T06:13:53.759Z,5.00
2023-05-03T06:15:56.356Z,5.20
2023-05-03T06:17:59.856Z,5.30
2023-05-03T06:20:04.201Z,5.40
2023-05-03T06:22:07.092Z,5.40
2023-05-03T06:24:10.614Z,5.40
2023-05-03T06:26:16.991Z,5.60
2023-05-03T06:28:20.826Z,5.60
2023-05-03T06:30:25.192Z,5.80
2023-05-03T06:32:28.293Z,6.00
2023-05-03T06:34:30.915Z,6.20
2023-05-03T06:36:33.828Z,6.30
2023-05-03T06:38:36.433Z,6.40
2023-05-03T06:40:40.879Z,6.50
2023-05-03T06:42:43.376Z,6.60
2023-05-03T06:44:48.201Z,6.50
2023-05-03T06:46:51.314Z,6.50
2023-05-03T06:48:55.877Z,6.70
2023-05-03T06:50:58.526Z,6.90
2023-05-03T06:53:01.206Z,7.00
2023-05-03T06:55:04.658Z,7.00
2023-05-03T06:57:07.535Z,7.00
2023-05-03T06:59:11.041Z,7.00
2023-05-03T07:01:13.949Z,7.10
2023-05-03T07:03:16.568Z,7.20
2023-05-03T07:05:19.288Z,7.30
2023-05-03T07:07:21.841Z,7.60
2023-05-03T07:09:41.463Z,7.70
2023-05-03T07:11:28.648Z,7.70
2023-05-03T07:13:31.813Z,7.70
2023-05-03T07:15:34.432Z,7.90
2023-05-03T07:17:36.939Z,7.90
2023-05-03T07:19:39.496Z,7.90
2023-05-03T07:21:42.077Z,7.90
2023-05-03T07:23:44.727Z,7.90
2023-05-03T07:25:47.525Z,8.00
2023-05-03T07:27:50.054Z,8.00
2023-05-03T07:29:52.530Z,8.00
2023-05-03T07:31:54.993Z,8.00
2023-05-03T07:33:57.603Z,8.30
2023-05-03T07:36:00.161Z,8.30
2023-05-03T07:38:02.746Z,8.40
2023-05-03T07:40:06.740Z,8.50
2023-05-03T07:42:11.746Z,8.50
2023-05-03T07:44:14.307Z,8.50
2023-05-03T07:46:16.792Z,8.60
2023-05-03T07:48:19.746Z,8.70
2023-05-03T07:50:22.565Z,8.70
2023-05-03T07:52:25.355Z,8.70
2023-05-03T07:54:27.842Z,8.80
2023-05-03T07:56:40.072Z,8.90
2023-05-03T07:58:43.789Z,9.10
2023-05-03T08:00:47.184Z,9.20
2023-05-03T08:02:49.862Z,9.30
2023-05-03T08:04:54.408Z,9.40
2023-05-03T08:06:59.277Z,9.50
2023-05-03T08:09:01.755Z,9.30
2023-05-03T08:11:06.525Z,9.30
2023-05-03T08:13:09.021Z,9.40
2023-05-03T08:15:12.593Z,9.60
2023-05-03T08:17:15.782Z,9.70
2023-05-03T08:19:18.341Z,9.90
2023-05-03T08:21:21.433Z,9.80
2023-05-03T08:23:25.176Z,9.80
2023-05-03T08:25:27.887Z,10.00
2023-05-03T08:27:30.491Z,10.30
2023-05-03T08:29:33.439Z,10.30
2023-05-03T08:31:36.402Z,10.40
2023-05-03T08:33:39.450Z,10.30
2023-05-03T08:35:42.044Z,10.70
2023-05-03T08:37:45.172Z,10.80
2023-05-03T08:39:47.824Z,10.90
2023-05-03T08:41:50.915Z,11.10
2023-05-03T08:43:54.293Z,11.10
2023-05-03T08:45:56.885Z,11.30
2023-05-03T08:48:02.359Z,11.40
2023-05-03T08:50:06.098Z,11.40
2023-05-03T08:52:09.620Z,11.60
2023-05-03T08:54:12.164Z,11.60
2023-05-03T08:56:17.022Z,11.60
2023-05-03T08:58:19.625Z,11.70
2023-05-03T09:00:27.767Z,11.90
2023-05-03T09:02:32.201Z,11.90
2023-05-03T09:04:35.192Z,12.10
2023-05-03T09:06:38.228Z,11.90
2023-05-03T09:08:43.334Z,12.40
2023-05-03T09:10:45.856Z,12.30
2023-05-03T09:12:48.385Z,12.70
2023-05-03T09:14:50.850Z,12.80
2023-05-03T09:16:53.457Z,12.90
2023-05-03T09:18:59.672Z,12.80
2023-05-03T09:21:02.289Z,12.90
2023-05-03T09:23:06.844Z,12.10
2023-05-03T09:25:11.579Z,11.70
2023-05-03T09:27:18.545Z,11.90
2023-05-03T09:29:28.268Z,11.90
2023-05-03T09:31:31.670Z,12.30
2023-05-03T09:33:34.227Z,12.00
2023-05-03T09:35:36.898Z,11.70
2023-05-03T09:37:39.544Z,12.20
2023-05-03T09:39:42.699Z,12.00
2023-05-03T09:41:45.624Z,12.70
2023-05-03T09:46:09.641Z,13.00
2023-05-03T09:48:13.304Z,12.70
2023-05-03T09:50:16.876Z,13.00
2023-05-03T09:52:19.511Z,12.90
2023-05-03T09:54:25.951Z,12.80
2023-05-03T09:56:34.476Z,13.20
2023-05-03T09:58:37.549Z,12.90
2023-05-03T10:00:41.324Z,13.00
2023-05-03T10:02:44.300Z,13.20
2023-05-03T10:04:48.221Z,13.80
2023-05-03T10:06:52.740Z,12.90
2023-05-03T10:08:58.498Z,13.10
2023-05-03T10:11:02.361Z,13.10
2023-05-03T10:13:05.453Z,13.20
2023-05-03T10:15:10.838Z,12.80
2023-05-03T10:17:15.812Z,12.90
2023-05-03T10:19:20.854Z,13.60
2023-05-03T10:21:27.051Z,14.20
2023-05-03T10:23:29.561Z,14.40
2023-05-03T10:25:32.637Z,14.60
2023-05-03T10:27:42.284Z,14.80
2023-05-03T10:29:51.715Z,14.80
2023-05-03T10:31:54.400Z,13.80
2023-05-03T10:33:56.939Z,13.60
2023-05-03T10:36:00.848Z,13.70
2023-05-03T10:38:07.113Z,14.10
2023-05-03T10:40:11.586Z,14.40
2023-05-03T10:42:14.933Z,13.90
2023-05-03T10:44:27.438Z,14.40
2023-05-03T10:46:31.786Z,14.80
2023-05-03T10:48:34.754Z,13.90
2023-05-03T10:50:37.342Z,14.20
2023-05-03T10:52:47.661Z,14.10
2023-05-03T10:54:50.585Z,14.50
2023-05-03T10:56:54.404Z,14.60
2023-05-03T10:58:58.051Z,14.50
2023-05-03T11:01:00.722Z,13.80
2023-05-03T11:03:25.377Z,14.10
2023-05-03T11:05:28.667Z,14.20
2023-05-03T11:07:31.260Z,14.50
2023-05-03T11:09:34.460Z,14.90
2023-05-03T11:11:38.684Z,14.80
2023-05-03T11:13:41.232Z,14.90
2023-05-03T11:15:44.799Z,15.30
2023-05-03T11:17:48.156Z,15.50
2023-05-03T11:19:50.779Z,15.60
2023-05-03T11:21:53.499Z,15.30
2023-05-03T11:23:57.874Z,15.30
2023-05-03T11:26:00.883Z,15.60
2023-05-03T11:28:03.881Z,15.70
2023-05-03T11:30:08.197Z,15.10
2023-05-03T11:32:11.368Z,15.30
2023-05-03T11:34:15.274Z,15.30
2023-05-03T11:36:17.929Z,14.90
2023-05-03T11:38:20.627Z,14.50
2023-05-03T11:40:23.261Z,14.80
2023-05-03T11:42:26.301Z,14.80
2023-05-03T11:44:28.827Z,14.80
2023-05-03T11:46:33.139Z,14.20
2023-05-03T11:48:36.606Z,15.00
2023-05-03T11:50:46.365Z,15.30
2023-05-03T11:52:48.845Z,15.30
2023-05-03T11:54:51.796Z,15.20
2023-05-03T11:56:56.925Z,14.40
2023-05-03T11:59:00.173Z,14.40
2023-05-03T12:01:03.068Z,14.90
2023-05-03T12:03:07.820Z,15.50
2023-05-03T12:05:11.138Z,15.70
2023-05-03T12:07:18.290Z,15.60
2023-05-03T12:09:22.390Z,15.70
2023-05-03T12:11:27.309Z,15.50
2023-05-03T12:13:34.207Z,15.80
2023-05-03T12:15:37.238Z,15.90
2023-05-03T12:17:43.463Z,15.30
2023-05-03T12:19:44.953Z,14.40
2023-05-03T12:21:59.297Z,14.60
2023-05-03T12:23:55.876Z,14.50
2023-05-03T12:25:57.242Z,14.80
2023-05-03T12:30:09.179Z,15.30
2023-05-03T12:32:12.144Z,15.30
2023-05-03T12:34:32.681Z,15.40
2023-05-03T12:36:21.206Z,15.50
2023-05-03T12:38:24.431Z,15.60
2023-05-03T12:40:34.263Z,16.00
2023-05-03T12:42:34.064Z,16.20
2023-05-03T12:44:41.432Z,16.20
2023-05-03T12:46:45.148Z,16.20
2023-05-03T12:48:53.926Z,16.00
2023-05-03T12:51:17.116Z,16.00
2023-05-03T12:53:03.032Z,16.40
2023-05-03T12:59:41.243Z,16.60
2023-05-03T13:03:43.530Z,16.00
2023-05-03T13:05:42.209Z,16.10
2023-05-03T13:07:50.189Z,16.00
2023-05-03T13:11:56.105Z,16.50
2023-05-03T13:13:58.941Z,16.70
2023-05-03T13:16:02.273Z,16.80
2023-05-03T13:18:06.843Z,16.70
2023-05-03T13:20:10.569Z,16.20
2023-05-03T13:22:13.470Z,16.60
2023-05-03T13:24:16.364Z,16.70
2023-05-03T13:26:18.828Z,16.90
2023-05-03T13:28:23.553Z,16.90
2023-05-03T13:30:26.181Z,16.70
2023-05-03T13:32:28.879Z,16.50
2023-05-03T13:34:31.475Z,16.60
2023-05-03T13:36:33.923Z,16.70
2023-05-03T13:38:36.505Z,17.00
2023-05-03T13:40:39.012Z,17.30
2023-05-03T13:42:41.517Z,17.00
2023-05-03T13:44:46.405Z,16.30
2023-05-03T13:46:48.896Z,15.90
2023-05-03T13:48:52.140Z,15.40
2023-05-03T13:50:54.665Z,15.80
2023-05-03T13:52:57.259Z,16.00
2023-05-03T13:55:01.372Z,16.20
2023-05-03T13:57:04.067Z,16.30
2023-05-03T13:59:07.878Z,16.30
2023-05-03T14:01:10.424Z,16.60
2023-05-03T14:03:13.092Z,16.60
2023-05-03T14:05:16.086Z,16.40
2023-05-03T14:07:18.647Z,16.70
2023-05-03T14:09:21.228Z,16.90
2023-05-03T14:11:24.425Z,17.10
2023-05-03T14:13:26.950Z,17.30
2023-05-03T14:15:29.735Z,17.50
2023-05-03T14:17:32.377Z,17.40
2023-05-03T14:19:36.115Z,17.40
2023-05-03T14:21:38.613Z,17.50
2023-05-03T14:23:41.212Z,17.50
2023-05-03T14:25:43.753Z,17.00
2023-05-03T14:27:46.214Z,17.00
2023-05-03T14:29:48.798Z,16.70
2023-05-03T14:31:51.457Z,16.50
2023-05-03T14:33:54.404Z,17.00
2023-05-03T14:35:57.143Z,16.70
2023-05-03T14:37:59.975Z,16.50
2023-05-03T14:40:03.153Z,16.60
2023-05-03T14:42:05.852Z,15.80
2023-05-03T14:44:08.695Z,16.10
2023-05-03T14:46:11.306Z,16.00
2023-05-03T14:48:13.890Z,16.00
2023-05-03T14:50:16.440Z,16.00
2023-05-03T14:52:18.927Z,16.40
2023-05-03T14:54:22.454Z,16.70
2023-05-03T14:56:25.493Z,16.60
2023-05-03T14:58:28.004Z,16.30
2023-05-03T15:00:30.580Z,16.30
2023-05-03T15:02:33.123Z,16.60
2023-05-03T15:04:37.255Z,16.60
2023-05-03T15:08:55.222Z,17.20
2023-05-03T15:10:57.817Z,17.40
2023-05-03T15:13:00.421Z,17.60
2023-05-03T15:15:03.049Z,16.90
2023-05-03T15:17:05.807Z,16.30
2023-05-03T15:19:08.369Z,16.30
2023-05-03T15:21:12.246Z,16.20
2023-05-03T15:23:14.780Z,16.20
2023-05-03T15:25:17.289Z,16.70
2023-05-03T15:27:19.752Z,17.00
2023-05-03T15:29:22.235Z,17.30
2023-05-03T15:31:24.749Z,17.50
2023-05-03T15:33:27.394Z,16.90
2023-05-03T15:35:30.399Z,16.50
2023-05-03T15:37:36.347Z,16.70
2023-05-03T15:39:38.821Z,17.10
2023-05-03T15:41:41.450Z,17.30
2023-05-03T15:43:44.626Z,17.10
2023-05-03T15:45:47.233Z,17.10
2023-05-03T15:47:49.746Z,17.10
2023-05-03T15:49:52.288Z,16.90
2023-05-03T15:51:54.787Z,17.10
2023-05-03T15:53:57.296Z,17.30
2023-05-03T15:56:01.562Z,17.00
2023-05-03T15:58:06.730Z,16.70
2023-05-03T16:00:13.178Z,16.60
2023-05-03T16:02:15.784Z,16.40
2023-05-03T16:04:18.254Z,15.90
2023-05-03T16:06:20.749Z,15.80
2023-05-03T16:08:23.244Z,16.10
2023-05-03T16:10:26.108Z,16.40
2023-05-03T16:12:28.793Z,16.70
2023-05-03T16:14:32.395Z,16.60
2023-05-03T16:16:35.188Z,16.90
2023-05-03T16:18:37.931Z,16.90
2023-05-03T16:20:40.723Z,17.00
2023-05-03T16:22:43.182Z,17.20
2023-05-03T16:24:46.324Z,16.60
2023-05-03T16:26:50.311Z,16.90
2023-05-03T16:28:52.860Z,16.90
2023-05-03T16:30:55.331Z,17.20
2023-05-03T16:32:57.875Z,17.00
2023-05-03T16:35:00.551Z,16.40
2023-05-03T16:37:03.104Z,16.30
2023-05-03T16:39:05.660Z,16.00
2023-05-03T16:41:08.168Z,16.20
2023-05-03T16:43:10.652Z,16.20
2023-05-03T16:45:14.958Z,16.50
2023-05-03T16:47:17.583Z,16.70
2023-05-03T16:49:20.049Z,16.80
2023-05-03T16:51:22.592Z,16.90
2023-05-03T16:53:25.134Z,17.10
2023-05-03T16:55:27.628Z,17.00
2023-05-03T16:57:30.147Z,17.00
2023-05-03T16:59:32.655Z,17.20
2023-05-03T17:01:35.215Z,17.00
2023-05-03T17:03:37.782Z,17.00
2023-05-03T17:05:40.338Z,16.80
2023-05-03T17:07:42.851Z,16.70
2023-05-03T17:09:45.460Z,16.70
2023-05-03T17:11:47.965Z,16.90
2023-05-03T17:13:50.447Z,16.80
2023-05-03T17:15:53.611Z,16.70
2023-05-03T17:17:56.129Z,16.60
2023-05-03T17:19:58.741Z,16.50
2023-05-03T17:22:01.332Z,16.60
2023-05-03T17:24:03.938Z,16.50
2023-05-03T17:26:08.208Z,16.30
2023-05-03T17:28:10.725Z,16.10
2023-05-03T17:30:14.256Z,16.00
2023-05-03T17:32:16.792Z,16.00
2023-05-03T17:34:19.890Z,15.90
2023-05-03T17:36:23.013Z,15.90
2023-05-03T17:38:25.710Z,15.80
2023-05-03T17:40:28.250Z,15.80
2023-05-03T17:42:32.610Z,15.80
2023-05-03T17:44:35.127Z,16.00
2023-05-03T17:46:37.763Z,15.90
2023-05-03T17:48:42.791Z,15.90
2023-05-03T17:50:45.752Z,16.00
2023-05-03T17:52:48.190Z,15.90
2023-05-03T17:54:51.599Z,15.80
2023-05-03T17:56:54.236Z,15.80
2023-05-03T17:58:56.713Z,15.70
2023-05-03T18:00:59.209Z,15.60
2023-05-03T18:03:02.456Z,15.50
2023-05-03T18:05:06.212Z,15.40
2023-05-03T18:07:08.734Z,15.40
2023-05-03T18:09:11.363Z,15.20
2023-05-03T18:11:13.904Z,15.30
2023-05-03T18:13:16.459Z,15.20
2023-05-03T18:15:19.313Z,15.30
2023-05-03T18:17:22.338Z,15.30
2023-05-03T18:19:24.956Z,15.30
2023-05-03T18:21:28.112Z,15.10
2023-05-03T18:23:30.826Z,15.10
2023-05-03T18:25:33.298Z,14.90
2023-05-03T18:27:36.946Z,14.80
2023-05-03T18:29:39.401Z,14.80
2023-05-03T18:31:41.914Z,14.70
2023-05-03T18:33:44.499Z,14.60
2023-05-03T18:35:50.196Z,14.50
2023-05-03T18:37:52.965Z,14.60
2023-05-03T18:39:55.462Z,14.40
2023-05-03T18:41:58.430Z,14.30
2023-05-03T18:44:01.211Z,14.20
2023-05-03T18:46:03.881Z,14.10
2023-05-03T18:48:06.516Z,14.00
2023-05-03T18:50:09.471Z,14.00
2023-05-03T18:52:12.020Z,13.90
2023-05-03T18:54:14.596Z,13.90
2023-05-03T18:56:17.089Z,13.90
2023-05-03T18:58:19.917Z,13.70
2023-05-03T19:00:22.635Z,13.60
2023-05-03T19:02:25.224Z,13.60
2023-05-03T19:04:27.846Z,13.50
2023-05-03T19:06:30.646Z,13.30
2023-05-03T19:08:33.139Z,13.30
2023-05-03T19:10:35.637Z,13.20
2023-05-03T19:14:56.387Z,13.10
2023-05-03T19:16:59.078Z,13.10
2023-05-03T19:21:18.689Z,12.90
2023-05-03T19:23:21.163Z,12.90
2023-05-03T19:25:23.631Z,12.80
2023-05-03T19:27:26.595Z,12.90
2023-05-03T19:29:29.260Z,12.80
2023-05-03T19:31:31.930Z,12.70
2023-05-03T19:33:34.596Z,12.60
2023-05-03T19:35:38.923Z,12.40
2023-05-03T19:37:43.135Z,12.30
2023-05-03T19:39:45.643Z,12.10
2023-05-03T19:41:48.437Z,12.00
2023-05-03T19:43:52.756Z,11.90
2023-05-03T19:45:55.270Z,11.70
2023-05-03T19:47:57.899Z,11.60
2023-05-03T19:50:00.406Z,11.70
2023-05-03T19:52:04.783Z,11.50
2023-05-03T19:54:11.771Z,11.40
2023-05-03T19:56:15.953Z,11.30
2023-05-03T19:58:20.137Z,11.40
2023-05-03T20:00:23.630Z,11.30
2023-05-03T20:02:26.670Z,11.30
2023-05-03T20:04:29.272Z,11.30
2023-05-03T20:06:31.777Z,11.30
2023-05-03T20:08:35.447Z,11.30
2023-05-03T20:10:38.326Z,11.30
2023-05-03T20:12:42.642Z,11.20
2023-05-03T20:14:45.446Z,11.20
2023-05-03T20:16:47.990Z,11.10
2023-05-03T20:18:50.503Z,11.10
2023-05-03T20:20:53.193Z,11.10
2023-05-03T20:22:55.816Z,11.00
2023-05-03T20:24:58.284Z,11.00
2023-05-03T20:27:02.042Z,11.00
2023-05-03T20:29:04.664Z,10.90
2023-05-03T20:31:09.721Z,10.90
2023-05-03T20:33:12.963Z,10.90
2023-05-03T20:35:15.744Z,10.90
2023-05-03T20:37:29.643Z,11.00
2023-05-03T20:39:35.972Z,11.00
2023-05-03T20:41:38.582Z,11.00
2023-05-03T20:43:41.061Z,11.00
2023-05-03T20:45:43.695Z,10.90
2023-05-03T20:47:46.281Z,10.80
2023-05-03T20:52:04.168Z,10.70
2023-05-03T20:54:10.147Z,10.60
2023-05-03T20:56:13.212Z,10.50
2023-05-03T20:58:15.670Z,10.40
2023-05-03T21:00:20.203Z,10.40
2023-05-03T21:02:22.774Z,10.40
2023-05-03T21:04:25.273Z,10.40
2023-05-03T21:06:27.840Z,10.40
2023-05-03T21:08:30.325Z,10.30
2023-05-03T21:10:32.770Z,10.20
2023-05-03T21:12:35.419Z,10.20
2023-05-03T21:14:37.976Z,10.20
2023-05-03T21:16:40.501Z,10.20
2023-05-03T21:18:43.135Z,10.10
2023-05-03T21:20:45.596Z,10.10
2023-05-03T21:22:48.099Z,10.00
2023-05-03T21:24:50.911Z,10.10
2023-05-03T21:26:53.688Z,10.00
2023-05-03T21:28:56.148Z,10.00
2023-05-03T21:30:59.403Z,10.00
2023-05-03T21:33:02.052Z,9.90
2023-05-03T21:35:05.197Z,9.90
2023-05-03T21:37:07.719Z,9.80
2023-05-03T21:39:10.523Z,9.80
2023-05-03T21:41:13.402Z,9.80
2023-05-03T21:43:15.850Z,9.70
2023-05-03T21:45:18.382Z,9.70
2023-05-03T21:47:20.881Z,9.60
2023-05-03T21:49:23.335Z,9.60
2023-05-03T21:51:25.778Z,9.60
2023-05-03T21:53:28.758Z,9.50
2023-05-03T21:55:31.515Z,9.50
2023-05-03T21:57:34.023Z,9.50
2023-05-03T21:59:36.704Z,9.40
2023-05-03T22:01:39.762Z,9.40
2023-05-03T22:03:42.463Z,9.30
2023-05-03T22:05:46.886Z,9.30
2023-05-03T22:07:49.483Z,9.30
2023-05-03T22:09:52.267Z,9.30
2023-05-03T22:11:54.738Z,9.30
2023-05-03T22:14:07.663Z,9.20
2023-05-03T22:16:06.353Z,9.20
2023-05-03T22:18:09.074Z,9.20
2023-05-03T22:20:12.127Z,9.10
2023-05-03T22:22:14.636Z,9.10
2023-05-03T22:24:17.837Z,9.00
2023-05-03T22:26:20.284Z,9.00
2023-05-03T22:28:22.818Z,8.90
2023-05-03T22:30:25.313Z,8.90
2023-05-03T22:32:27.778Z,8.90
2023-05-03T22:34:30.315Z,8.80
2023-05-03T22:36:32.771Z,9.00
2023-05-03T22:38:35.400Z,8.80
2023-05-03T22:40:37.869Z,8.70
2023-05-03T22:42:40.347Z,8.80
2023-05-03T22:44:42.980Z,8.60
2023-05-03T22:46:45.802Z,8.60
2023-05-03T22:48:48.279Z,8.50
2023-05-03T22:50:51.072Z,8.50
2023-05-03T22:52:53.534Z,8.50
2023-05-03T22:54:56.692Z,8.50
2023-05-03T22:56:59.150Z,8.40
2023-05-03T23:01:18.599Z,8.40
2023-05-03T23:03:21.412Z,8.40
2023-05-03T23:05:24.081Z,8.30
2023-05-03T23:07:26.670Z,8.30
2023-05-03T23:09:29.758Z,8.20
2023-05-03T23:11:32.283Z,8.20
2023-05-03T23:13:34.946Z,8.20
2023-05-03T23:15:38.046Z,8.20
2023-05-03T23:17:40.589Z,8.20
2023-05-03T23:19:43.128Z,8.20
2023-05-03T23:21:45.622Z,8.30
2023-05-03T23:23:48.119Z,8.20
2023-05-03T23:25:51.289Z,8.20
2023-05-03T23:27:53.847Z,8.20
2023-05-03T23:29:56.824Z,8.10
2023-05-03T23:32:00.269Z,8.10
2023-05-03T23:34:04.709Z,8.10
2023-05-03T23:36:08.234Z,8.20
2023-05-03T23:38:11.099Z,8.20
2023-05-03T23:40:14.474Z,8.20
2023-05-03T23:42:17.853Z,8.10
2023-05-03T23:44:21.580Z,8.20
2023-05-03T23:46:24.690Z,8.20
2023-05-03T23:48:27.324Z,8.20
2023-05-03T23:50:30.253Z,8.20
2023-05-03T23:52:32.732Z,8.10
2023-05-03T23:54:35.400Z,8.00
2023-05-03T23:56:38.165Z,8.00
2023-05-03T23:58:40.628Z,8.00
